createdAt,value
2023-04-26T00:02:00.672Z,3.20
2023-04-26T00:04:04.012Z,3.20
2023-04-26T00:06:09.074Z,3.20
2023-04-26T00:08:12.470Z,3.10
2023-04-26T00:10:16.870Z,3.10
2023-04-26T00:12:19.921Z,3.10
2023-04-26T00:14:22.978Z,3.00
2023-04-26T00:16:26.492Z,3.00
2023-04-26T00:18:29.403Z,2.90
2023-04-26T00:20:32.296Z,2.90
2023-04-26T00:22:35.256Z,2.90
2023-04-26T00:24:38.096Z,2.80
2023-04-26T00:26:42.252Z,2.80
2023-04-26T00:28:45.043Z,2.80
2023-04-26T00:30:48.865Z,2.70
2023-04-26T00:32:51.745Z,2.70
2023-04-26T00:34:54.572Z,2.70
2023-04-26T00:36:57.382Z,2.70
2023-04-26T00:39:00.172Z,2.70
2023-04-26T00:41:03.043Z,2.70
2023-04-26T00:43:07.642Z,2.70
2023-04-26T00:45:10.831Z,2.60
2023-04-26T00:47:13.736Z,2.60
2023-04-26T00:49:19.598Z,2.60
2023-04-26T00:51:22.764Z,2.60
2023-04-26T00:53:27.602Z,2.50
2023-04-26T00:55:30.754Z,2.50
2023-04-26T00:57:33.614Z,2.50
2023-04-26T00:59:38.054Z,2.50
2023-04-26T01:01:42.468Z,2.50
2023-04-26T01:03:47.030Z,2.40
2023-04-26T01:05:50.263Z,2.40
2023-04-26T01:07:53.474Z,2.40
2023-04-26T01:09:57.303Z,2.40
2023-04-26T01:12:00.430Z,2.40
2023-04-26T01:14:04.705Z,2.40
2023-04-26T01:16:12.540Z,2.30
2023-04-26T01:18:16.069Z,2.40
2023-04-26T01:20:18.881Z,2.30
2023-04-26T01:22:21.801Z,2.30
2023-04-26T01:24:26.084Z,2.20
2023-04-26T01:26:28.974Z,2.10
2023-04-26T01:28:31.756Z,2.10
2023-04-26T01:30:34.579Z,2.00
2023-04-26T01:32:37.744Z,2.00
2023-04-26T01:34:40.750Z,2.00
2023-04-26T01:36:43.955Z,2.00
2023-04-26T01:38:46.880Z,1.90
2023-04-26T01:40:51.362Z,1.90
2023-04-26T01:42:54.510Z,1.90
2023-04-26T01:44:57.318Z,1.90
2023-04-26T01:47:00.252Z,1.90
2023-04-26T01:49:03.276Z,1.80
2023-04-26T01:51:06.364Z,1.80
2023-04-26T01:53:09.288Z,1.80
2023-04-26T01:55:12.216Z,1.70
2023-04-26T01:57:16.522Z,1.70
2023-04-26T01:59:19.340Z,1.70
2023-04-26T02:01:22.196Z,1.60
2023-04-26T02:03:25.189Z,1.60
2023-04-26T02:05:28.225Z,1.60
2023-04-26T02:07:31.286Z,1.50
2023-04-26T02:09:34.158Z,1.50
2023-04-26T02:11:37.049Z,1.40
2023-04-26T02:13:41.591Z,1.40
2023-04-26T02:15:47.632Z,1.40
2023-04-26T02:17:50.566Z,1.40
2023-04-26T02:19:53.498Z,1.30
2023-04-26T02:21:58.344Z,1.30
2023-04-26T02:24:01.432Z,1.30
2023-04-26T02:26:05.542Z,1.30
2023-04-26T02:28:08.363Z,1.30
2023-04-26T02:30:15.709Z,1.30
2023-04-26T02:32:18.586Z,1.30
2023-04-26T02:34:21.483Z,1.30
2023-04-26T02:36:24.351Z,1.30
2023-04-26T02:38:27.289Z,1.30
2023-04-26T02:40:30.530Z,1.30
2023-04-26T02:42:33.378Z,1.30
2023-04-26T02:44:36.206Z,1.30
2023-04-26T02:46:40.366Z,1.20
2023-04-26T02:48:43.596Z,1.20
2023-04-26T02:50:47.941Z,1.20
2023-04-26T02:52:53.541Z,1.20
2023-04-26T02:54:56.554Z,1.20
2023-04-26T02:56:59.594Z,1.20
2023-04-26T02:59:02.495Z,1.20
2023-04-26T03:01:05.833Z,1.20
2023-04-26T03:03:10.371Z,1.20
2023-04-26T03:05:13.678Z,1.20
2023-04-26T03:07:16.861Z,1.10
2023-04-26T03:09:19.880Z,1.10
2023-04-26T03:11:22.747Z,1.10
2023-04-26T03:13:25.600Z,1.10
2023-04-26T03:15:28.447Z,1.10
2023-04-26T03:17:31.444Z,1.10
2023-04-26T03:19:35.746Z,1.10
2023-04-26T03:21:38.661Z,1.10
2023-04-26T03:23:41.611Z,1.10
2023-04-26T03:25:49.392Z,1.10
2023-04-26T03:27:52.400Z,1.10
2023-04-26T03:29:55.346Z,1.20
2023-04-26T03:31:58.274Z,1.10
2023-04-26T03:34:01.233Z,1.10
2023-04-26T03:36:06.365Z,1.10
2023-04-26T03:38:09.288Z,1.10
2023-04-26T03:40:13.279Z,1.00
2023-04-26T03:42:16.189Z,1.00
2023-04-26T03:44:19.102Z,1.00
2023-04-26T03:46:22.116Z,1.00
2023-04-26T03:48:25.173Z,1.00
2023-04-26T03:50:28.437Z,1.00
2023-04-26T03:52:32.964Z,1.00
2023-04-26T03:54:36.093Z,1.00
2023-04-26T03:56:39.974Z,1.00
2023-04-26T03:58:43.063Z,0.90
2023-04-26T04:00:46.167Z,0.90
2023-04-26T04:02:52.028Z,0.90
2023-04-26T04:04:55.295Z,0.90
2023-04-26T04:06:58.471Z,0.90
2023-04-26T04:09:04.451Z,0.80
2023-04-26T04:11:07.567Z,0.80
2023-04-26T04:13:10.708Z,0.70
2023-04-26T04:15:13.745Z,0.70
2023-04-26T04:17:16.643Z,0.70
2023-04-26T04:19:19.927Z,0.70
2023-04-26T04:21:22.786Z,0.70
2023-04-26T04:23:26.173Z,0.70
2023-04-26T04:25:30.606Z,0.70
2023-04-26T04:27:33.451Z,0.70
2023-04-26T04:29:36.568Z,0.70
2023-04-26T04:31:42.596Z,0.70
2023-04-26T04:33:45.730Z,0.80
2023-04-26T04:35:48.852Z,0.80
2023-04-26T04:37:51.775Z,0.80
2023-04-26T04:39:56.044Z,0.90
2023-04-26T04:42:00.419Z,0.90
2023-04-26T04:44:04.010Z,0.90
2023-04-26T04:46:06.898Z,0.90
2023-04-26T04:48:11.387Z,1.00
2023-04-26T04:50:14.576Z,1.00
2023-04-26T04:52:18.910Z,1.00
2023-04-26T04:54:21.987Z,1.10
2023-04-26T04:56:25.933Z,1.10
2023-04-26T04:58:33.193Z,1.20
2023-04-26T05:00:37.825Z,1.30
2023-04-26T05:02:40.695Z,1.40
2023-04-26T05:04:43.717Z,1.60
2023-04-26T05:06:46.584Z,1.70
2023-04-26T05:08:49.573Z,1.70
2023-04-26T05:10:53.284Z,1.80
2023-04-26T05:12:56.740Z,1.90
2023-04-26T05:15:00.909Z,1.90
2023-04-26T05:17:03.821Z,2.00
2023-04-26T05:19:09.244Z,2.10
2023-04-26T05:21:12.478Z,2.20
2023-04-26T05:23:15.263Z,2.20
2023-04-26T05:25:19.273Z,2.40
2023-04-26T05:27:23.620Z,2.40
2023-04-26T05:29:29.724Z,2.50
2023-04-26T05:31:33.954Z,2.50
2023-04-26T05:33:36.865Z,2.60
2023-04-26T05:35:40.925Z,2.60
2023-04-26T05:37:43.789Z,2.70
2023-04-26T05:39:46.808Z,2.70
2023-04-26T05:41:49.682Z,2.80
2023-04-26T05:43:52.802Z,2.80
2023-04-26T05:45:57.828Z,2.90
2023-04-26T05:48:02.037Z,2.90
2023-04-26T05:50:05.363Z,3.00
2023-04-26T05:52:08.198Z,3.00
2023-04-26T05:54:11.064Z,3.10
2023-04-26T05:56:13.911Z,3.10
2023-04-26T05:58:16.769Z,3.30
2023-04-26T06:00:23.339Z,3.40
2023-04-26T06:02:27.187Z,3.50
2023-04-26T06:04:32.408Z,3.70
2023-04-26T06:06:35.521Z,3.90
2023-04-26T06:08:38.395Z,4.00
2023-04-26T06:10:41.214Z,4.20
2023-04-26T06:12:44.165Z,4.40
2023-04-26T06:14:47.120Z,4.60
2023-04-26T06:16:50.116Z,4.70
2023-04-26T06:18:52.841Z,4.90
2023-04-26T06:20:57.023Z,5.00
2023-04-26T06:23:00.062Z,5.10
2023-04-26T06:25:02.983Z,5.20
2023-04-26T06:27:06.324Z,5.30
2023-04-26T06:29:10.840Z,5.50
2023-04-26T06:31:13.786Z,5.70
2023-04-26T06:33:16.650Z,5.80
2023-04-26T06:35:19.421Z,5.90
2023-04-26T06:37:23.585Z,5.90
2023-04-26T06:39:26.568Z,6.00
2023-04-26T06:41:29.623Z,6.10
2023-04-26T06:43:32.533Z,6.20
2023-04-26T06:45:35.900Z,6.20
2023-04-26T06:47:38.843Z,6.30
2023-04-26T06:49:42.371Z,6.40
2023-04-26T06:51:45.247Z,6.50
2023-04-26T06:53:49.852Z,6.60
2023-04-26T06:55:53.384Z,6.70
2023-04-26T06:57:56.966Z,6.90
2023-04-26T06:59:59.963Z,7.10
2023-04-26T07:02:03.336Z,7.20
2023-04-26T07:04:10.082Z,7.30
2023-04-26T07:06:13.072Z,7.40
2023-04-26T07:08:16.175Z,7.50
2023-04-26T07:10:21.138Z,7.50
2023-04-26T07:12:24.082Z,7.50
2023-04-26T07:14:27.100Z,7.60
2023-04-26T07:16:30.285Z,7.70
2023-04-26T07:18:33.305Z,7.80
2023-04-26T07:20:36.385Z,7.90
2023-04-26T07:22:40.418Z,8.00
2023-04-26T07:24:43.227Z,8.20
2023-04-26T07:26:47.442Z,8.30
2023-04-26T07:28:51.702Z,8.30
2023-04-26T07:30:54.643Z,8.40
2023-04-26T07:32:57.638Z,8.50
2023-04-26T07:35:00.821Z,8.60
2023-04-26T07:37:04.535Z,8.70
2023-04-26T07:39:09.562Z,8.70
2023-04-26T07:41:13.020Z,8.80
2023-04-26T07:43:17.546Z,8.80
2023-04-26T07:45:20.665Z,8.80
2023-04-26T07:47:23.661Z,8.80
2023-04-26T07:49:26.894Z,8.90
2023-04-26T07:51:29.702Z,9.10
2023-04-26T07:53:32.841Z,9.10
2023-04-26T07:55:37.322Z,9.20
2023-04-26T07:57:40.209Z,9.30
2023-04-26T07:59:46.451Z,9.40
2023-04-26T08:01:49.431Z,9.70
2023-04-26T08:03:53.030Z,9.90
2023-04-26T08:05:56.670Z,9.80
2023-04-26T08:08:01.000Z,10.00
2023-04-26T08:10:04.118Z,10.10
2023-04-26T08:12:08.303Z,10.20
2023-04-26T08:14:11.642Z,10.30
2023-04-26T08:16:16.021Z,10.40
2023-04-26T08:18:19.277Z,10.60
2023-04-26T08:20:22.731Z,10.90
2023-04-26T08:22:25.950Z,11.00
2023-04-26T08:24:29.215Z,11.00
2023-04-26T08:26:32.241Z,10.90
2023-04-26T08:28:35.684Z,10.80
2023-04-26T08:30:38.656Z,10.60
2023-04-26T08:32:43.117Z,10.50
2023-04-26T08:34:46.595Z,10.40
2023-04-26T08:36:49.655Z,10.30
2023-04-26T08:38:52.680Z,10.30
2023-04-26T08:40:56.986Z,10.30
2023-04-26T08:42:59.914Z,10.50
2023-04-26T08:45:04.996Z,10.60
2023-04-26T08:47:15.062Z,10.90
2023-04-26T08:49:31.026Z,11.10
2023-04-26T08:51:34.904Z,11.30
2023-04-26T08:53:39.065Z,11.40
2023-04-26T08:55:43.744Z,11.30
2023-04-26T08:57:48.417Z,11.20
2023-04-26T08:59:52.682Z,11.10
2023-04-26T09:01:57.203Z,11.00
2023-04-26T09:04:01.806Z,11.10
2023-04-26T09:06:08.057Z,11.20
2023-04-26T09:08:15.298Z,11.40
2023-04-26T09:10:20.957Z,11.50
2023-04-26T09:12:23.961Z,11.60
2023-04-26T09:14:27.500Z,11.40
2023-04-26T09:16:37.013Z,11.40
2023-04-26T09:18:50.644Z,11.60
2023-04-26T09:21:07.603Z,11.70
2023-04-26T09:23:11.386Z,11.80
2023-04-26T09:25:15.099Z,11.90
2023-04-26T09:27:18.080Z,11.70
2023-04-26T09:29:21.321Z,11.50
2023-04-26T09:31:40.730Z,11.50
2023-04-26T09:33:58.736Z,11.40
2023-04-26T09:36:13.783Z,11.40
2023-04-26T09:38:18.519Z,11.40
2023-04-26T09:40:22.427Z,11.40
2023-04-26T09:42:25.423Z,11.60
2023-04-26T09:44:30.999Z,11.70
2023-04-26T09:46:34.076Z,11.80
2023-04-26T09:48:37.046Z,12.00
2023-04-26T09:50:39.938Z,12.10
2023-04-26T09:52:47.064Z,12.20
2023-04-26T09:54:51.630Z,12.40
2023-04-26T09:57:01.249Z,12.50
2023-04-26T09:59:05.735Z,12.60
2023-04-26T10:01:09.868Z,12.90
2023-04-26T10:03:14.116Z,13.10
2023-04-26T10:05:21.530Z,12.80
2023-04-26T10:07:27.213Z,12.60
2023-04-26T10:09:32.386Z,12.30
2023-04-26T10:11:36.952Z,12.10
2023-04-26T10:13:41.600Z,12.00
2023-04-26T10:15:44.774Z,11.70
2023-04-26T10:17:49.605Z,11.50
2023-04-26T10:19:59.080Z,11.60
2023-04-26T10:22:06.629Z,11.50
2023-04-26T10:24:11.113Z,11.60
2023-04-26T10:26:49.917Z,11.60
2023-04-26T10:29:02.162Z,11.50
2023-04-26T10:31:07.048Z,11.90
2023-04-26T10:33:14.765Z,12.10
2023-04-26T10:35:19.127Z,12.50
2023-04-26T10:37:22.444Z,12.70
2023-04-26T10:39:28.135Z,12.40
2023-04-26T10:41:39.862Z,12.60
2023-04-26T10:43:46.807Z,12.30
2023-04-26T10:45:52.474Z,12.30
2023-04-26T10:48:15.613Z,12.00
2023-04-26T10:50:18.724Z,12.00
2023-04-26T10:52:23.072Z,11.80
2023-04-26T10:54:26.070Z,11.60
2023-04-26T10:56:57.297Z,11.60
2023-04-26T11:01:20.529Z,11.70
2023-04-26T11:03:24.460Z,11.70
2023-04-26T11:05:42.757Z,11.70
2023-04-26T11:07:45.820Z,11.60
2023-04-26T11:09:50.509Z,12.10
2023-04-26T11:11:54.197Z,12.30
2023-04-26T11:13:57.589Z,12.60
2023-04-26T11:16:04.926Z,13.00
2023-04-26T11:18:08.368Z,13.40
2023-04-26T11:20:17.156Z,13.80
2023-04-26T11:22:23.258Z,13.70
2023-04-26T11:24:26.967Z,13.30
2023-04-26T11:26:34.171Z,12.90
2023-04-26T11:28:39.920Z,12.70
2023-04-26T11:30:42.832Z,12.70
2023-04-26T11:32:52.084Z,12.80
2023-04-26T11:34:58.168Z,12.90
2023-04-26T11:37:02.887Z,13.00
2023-04-26T11:39:06.739Z,13.10
2023-04-26T11:41:10.385Z,13.10
2023-04-26T11:43:15.402Z,13.40
2023-04-26T11:45:18.345Z,13.50
2023-04-26T11:47:21.431Z,13.60
2023-04-26T11:49:25.892Z,13.40
2023-04-26T11:51:30.648Z,13.30
2023-04-26T11:53:38.993Z,13.50
2023-04-26T11:55:42.148Z,13.70
2023-04-26T11:57:45.074Z,13.70
2023-04-26T11:59:48.298Z,13.70
2023-04-26T12:01:54.135Z,13.80
2023-04-26T12:03:59.051Z,13.90
2023-04-26T12:06:06.324Z,14.00
2023-04-26T12:08:12.564Z,14.00
2023-04-26T12:10:17.146Z,14.00
2023-04-26T12:12:20.096Z,13.90
2023-04-26T12:14:23.060Z,14.00
2023-04-26T12:16:27.130Z,14.30
2023-04-26T12:18:33.677Z,14.20
2023-04-26T12:20:38.017Z,14.30
2023-04-26T12:22:42.502Z,14.60
2023-04-26T12:24:48.858Z,14.70
2023-04-26T12:26:53.553Z,14.70
2023-04-26T12:28:56.570Z,14.70
2023-04-26T12:31:01.032Z,14.60
2023-04-26T12:33:15.398Z,14.20
2023-04-26T12:35:19.881Z,14.30
2023-04-26T12:37:22.677Z,14.20
2023-04-26T12:39:26.966Z,14.00
2023-04-26T12:41:29.929Z,14.00
2023-04-26T12:43:32.809Z,14.00
2023-04-26T12:45:36.541Z,14.10
2023-04-26T12:47:39.659Z,14.30
2023-04-26T12:49:42.745Z,14.30
2023-04-26T12:51:46.098Z,14.40
2023-04-26T12:53:49.030Z,14.50
2023-04-26T12:55:53.508Z,14.70
2023-04-26T12:57:56.650Z,14.70
2023-04-26T12:59:59.524Z,14.80
2023-04-26T13:02:03.750Z,14.90
2023-04-26T13:04:06.979Z,14.90
2023-04-26T13:06:10.257Z,15.00
2023-04-26T13:08:13.391Z,15.10
2023-04-26T13:10:18.152Z,15.00
2023-04-26T13:12:25.563Z,14.80
2023-04-26T13:14:28.449Z,14.80
2023-04-26T13:16:31.388Z,14.90
2023-04-26T13:18:34.198Z,14.90
2023-04-26T13:20:38.112Z,15.00
2023-04-26T13:22:42.444Z,15.10
2023-04-26T13:24:45.389Z,15.20
2023-04-26T13:26:48.398Z,15.40
2023-04-26T13:28:52.706Z,15.60
2023-04-26T13:30:55.778Z,15.70
2023-04-26T13:33:00.369Z,15.80
2023-04-26T13:35:04.152Z,15.90
2023-04-26T13:37:07.129Z,15.70
2023-04-26T13:39:09.975Z,15.70
2023-04-26T13:41:13.062Z,15.80
2023-04-26T13:43:15.922Z,15.90
2023-04-26T13:45:20.351Z,16.00
2023-04-26T13:47:23.195Z,15.70
2023-04-26T13:49:27.240Z,15.40
2023-04-26T13:51:30.649Z,15.10
2023-04-26T13:53:34.029Z,15.10
2023-04-26T13:55:36.909Z,15.10
2023-04-26T13:57:39.750Z,15.00
2023-04-26T13:59:42.677Z,14.80
2023-04-26T14:01:55.172Z,14.90
2023-04-26T14:03:59.963Z,15.20
2023-04-26T14:06:03.781Z,15.50
2023-04-26T14:08:07.547Z,15.70
2023-04-26T14:10:11.199Z,15.80
2023-04-26T14:12:14.244Z,15.90
2023-04-26T14:14:17.435Z,16.00
2023-04-26T14:16:20.351Z,16.10
2023-04-26T14:18:24.706Z,16.20
2023-04-26T14:20:27.616Z,16.40
2023-04-26T14:22:30.636Z,16.30
2023-04-26T14:24:33.548Z,16.10
2023-04-26T14:26:36.564Z,16.10
2023-04-26T14:28:40.982Z,16.20
2023-04-26T14:30:43.993Z,16.20
2023-04-26T14:32:46.906Z,16.10
2023-04-26T14:34:51.200Z,15.70
2023-04-26T14:36:54.045Z,15.70
2023-04-26T14:38:56.887Z,15.50
2023-04-26T14:40:59.862Z,15.60
2023-04-26T14:43:02.702Z,15.80
2023-04-26T14:45:06.549Z,15.90
2023-04-26T14:47:09.359Z,16.00
2023-04-26T14:49:12.191Z,15.80
2023-04-26T14:51:16.373Z,15.50
2023-04-26T14:53:19.159Z,15.60
2023-04-26T14:55:23.206Z,15.60
2023-04-26T14:57:27.622Z,15.40
2023-04-26T14:59:30.746Z,15.40
2023-04-26T15:01:36.068Z,15.70
2023-04-26T15:03:40.458Z,16.10
2023-04-26T15:05:43.527Z,16.20
2023-04-26T15:07:47.822Z,16.60
2023-04-26T15:09:54.061Z,17.10
2023-04-26T15:11:57.162Z,17.50
2023-04-26T15:14:00.038Z,17.70
2023-04-26T15:16:07.377Z,17.70
2023-04-26T15:18:13.472Z,17.60
2023-04-26T15:20:16.804Z,17.70
2023-04-26T15:22:19.690Z,17.40
2023-04-26T15:24:23.904Z,17.20
2023-04-26T15:26:26.882Z,17.00
2023-04-26T15:28:29.825Z,16.70
2023-04-26T15:30:32.744Z,16.80
2023-04-26T15:32:35.823Z,16.50
2023-04-26T15:34:43.129Z,16.20
2023-04-26T15:36:46.452Z,15.90
2023-04-26T15:38:49.619Z,15.80
2023-04-26T15:40:54.954Z,15.70
2023-04-26T15:42:57.831Z,15.40
2023-04-26T15:45:00.681Z,15.80
2023-04-26T15:47:03.675Z,16.50
2023-04-26T15:49:06.530Z,17.20
2023-04-26T15:51:09.409Z,18.10
2023-04-26T15:53:12.343Z,18.60
2023-04-26T15:55:15.354Z,19.10
2023-04-26T15:57:19.935Z,19.30
2023-04-26T15:59:22.860Z,19.70
2023-04-26T16:01:25.809Z,19.80
2023-04-26T16:03:29.369Z,19.80
2023-04-26T16:05:32.595Z,20.10
2023-04-26T16:07:35.824Z,20.50
2023-04-26T16:09:39.189Z,20.70
2023-04-26T16:11:43.048Z,20.80
2023-04-26T16:13:51.653Z,20.40
2023-04-26T16:15:54.791Z,20.00
2023-04-26T16:17:57.743Z,19.60
2023-04-26T16:20:01.601Z,19.50
2023-04-26T16:22:04.505Z,19.50
2023-04-26T16:24:09.293Z,20.00
2023-04-26T16:26:12.543Z,20.10
2023-04-26T16:28:15.293Z,20.30
2023-04-26T16:30:19.694Z,20.40
2023-04-26T16:32:22.955Z,20.60
2023-04-26T16:34:26.699Z,20.60
2023-04-26T16:36:29.499Z,20.60
2023-04-26T16:38:32.421Z,19.80
2023-04-26T16:40:35.142Z,18.90
2023-04-26T16:42:41.897Z,17.80
2023-04-26T16:44:44.792Z,17.00
2023-04-26T16:46:49.008Z,16.30
2023-04-26T16:48:52.169Z,15.80
2023-04-26T16:50:55.251Z,15.50
2023-04-26T16:52:58.187Z,15.30
2023-04-26T16:55:02.057Z,14.90
2023-04-26T16:57:05.023Z,15.00
2023-04-26T16:59:08.034Z,15.30
2023-04-26T17:01:10.897Z,15.30
2023-04-26T17:03:16.354Z,15.10
2023-04-26T17:05:19.446Z,14.70
2023-04-26T17:07:22.422Z,14.50
2023-04-26T17:09:25.280Z,14.20
2023-04-26T17:11:28.230Z,14.00
2023-04-26T17:13:33.174Z,13.80
2023-04-26T17:15:36.505Z,13.60
2023-04-26T17:17:39.414Z,13.50
2023-04-26T17:19:43.691Z,13.40
2023-04-26T17:21:47.138Z,13.30
2023-04-26T17:23:50.757Z,13.30
2023-04-26T17:25:55.312Z,13.30
2023-04-26T17:27:58.606Z,13.20
2023-04-26T17:30:01.999Z,13.20
2023-04-26T17:32:05.065Z,13.10
2023-04-26T17:34:08.039Z,13.00
2023-04-26T17:36:12.277Z,12.90
2023-04-26T17:38:15.024Z,12.80
2023-04-26T17:40:18.867Z,12.70
2023-04-26T17:42:22.046Z,12.60
2023-04-26T17:44:25.004Z,12.50
2023-04-26T17:46:27.898Z,12.50
2023-04-26T17:48:30.771Z,12.40
2023-04-26T17:50:33.555Z,12.30
2023-04-26T17:52:38.037Z,12.20
2023-04-26T17:54:40.896Z,12.10
2023-04-26T17:56:44.229Z,12.00
2023-04-26T17:58:47.145Z,11.90
2023-04-26T18:00:50.368Z,11.80
2023-04-26T18:02:53.824Z,11.70
2023-04-26T18:04:57.280Z,11.70
2023-04-26T18:07:00.158Z,11.60
2023-04-26T18:09:04.770Z,11.60
2023-04-26T18:11:07.621Z,11.40
2023-04-26T18:13:11.246Z,11.30
2023-04-26T18:15:14.544Z,11.10
2023-04-26T18:17:17.466Z,11.00
2023-04-26T18:19:20.483Z,10.90
2023-04-26T18:21:23.390Z,10.80
2023-04-26T18:23:26.222Z,10.70
2023-04-26T18:25:30.660Z,10.70
2023-04-26T18:27:33.515Z,10.60
2023-04-26T18:29:36.345Z,10.50
2023-04-26T18:31:39.330Z,10.40
2023-04-26T18:33:42.330Z,10.30
2023-04-26T18:35:45.211Z,10.20
2023-04-26T18:37:48.111Z,10.10
2023-04-26T18:39:50.944Z,10.00
2023-04-26T18:41:55.129Z,10.00
2023-04-26T18:43:57.852Z,9.90
2023-04-26T18:46:00.698Z,9.80
2023-04-26T18:48:03.609Z,9.70
2023-04-26T18:50:07.637Z,9.50
2023-04-26T18:52:10.384Z,9.40
2023-04-26T18:54:13.234Z,9.30
2023-04-26T18:56:16.250Z,9.30
2023-04-26T18:58:20.512Z,9.30
2023-04-26T19:00:23.608Z,9.30
2023-04-26T19:02:26.786Z,9.20
2023-04-26T19:04:29.740Z,9.20
2023-04-26T19:06:33.057Z,9.00
2023-04-26T19:08:36.281Z,8.90
2023-04-26T19:10:39.104Z,8.80
2023-04-26T19:12:41.900Z,8.70
2023-04-26T19:14:46.141Z,8.60
2023-04-26T19:16:49.297Z,8.50
2023-04-26T19:18:52.883Z,8.40
2023-04-26T19:20:55.874Z,8.40
2023-04-26T19:22:58.786Z,8.30
2023-04-26T19:25:01.931Z,8.20
2023-04-26T19:27:05.050Z,8.20
2023-04-26T19:29:08.334Z,8.10
2023-04-26T19:31:14.936Z,8.00
2023-04-26T19:33:17.847Z,8.00
2023-04-26T19:35:20.787Z,8.00
2023-04-26T19:37:23.703Z,8.10
2023-04-26T19:39:26.668Z,8.10
2023-04-26T19:41:29.518Z,8.10
2023-04-26T19:43:32.512Z,8.10
2023-04-26T19:45:35.547Z,8.00
2023-04-26T19:48:52.434Z,8.10
2023-04-26T19:55:08.363Z,8.00
2023-04-26T19:57:26.501Z,7.90
2023-04-26T19:59:29.639Z,7.80
2023-04-26T20:02:03.259Z,7.70
2023-04-26T20:04:09.724Z,7.60
2023-04-26T20:06:21.914Z,7.50
2023-04-26T20:08:25.018Z,7.40
2023-04-26T20:10:30.748Z,7.40
2023-04-26T20:12:39.695Z,7.30
2023-04-26T20:15:03.817Z,7.30
2023-04-26T20:17:10.304Z,7.30
2023-04-26T20:19:14.636Z,7.20
2023-04-26T20:21:21.840Z,7.20
2023-04-26T20:23:24.838Z,7.10
2023-04-26T20:25:28.012Z,7.10
2023-04-26T20:27:31.467Z,7.10
2023-04-26T20:29:34.530Z,7.10
2023-04-26T20:31:37.697Z,7.10
2023-04-26T20:33:41.156Z,7.10
2023-04-26T20:35:44.485Z,7.10
2023-04-26T20:37:49.139Z,7.10
2023-04-26T20:39:53.268Z,7.10
2023-04-26T20:41:56.962Z,7.10
2023-04-26T20:44:00.925Z,7.10
2023-04-26T20:46:05.323Z,7.10
2023-04-26T20:48:14.898Z,7.10
2023-04-26T20:50:17.901Z,7.00
2023-04-26T20:52:22.769Z,7.00
2023-04-26T20:54:27.235Z,7.00
2023-04-26T20:56:30.518Z,7.00
2023-04-26T20:58:33.672Z,7.00
2023-04-26T21:00:36.602Z,7.00
2023-04-26T21:02:39.584Z,7.00
2023-04-26T21:04:43.325Z,7.00
2023-04-26T21:06:46.858Z,6.90
2023-04-26T21:08:52.534Z,6.90
2023-04-26T21:10:57.099Z,6.90
2023-04-26T21:12:59.980Z,6.90
2023-04-26T21:15:03.794Z,6.90
2023-04-26T21:17:06.786Z,6.80
2023-04-26T21:19:10.036Z,6.80
2023-04-26T21:21:13.304Z,6.80
2023-04-26T21:23:16.262Z,6.80
2023-04-26T21:25:22.426Z,6.70
2023-04-26T21:27:26.829Z,6.70
2023-04-26T21:29:30.019Z,6.70
2023-04-26T21:31:32.969Z,6.60
2023-04-26T21:33:36.315Z,6.60
2023-04-26T21:35:39.370Z,6.60
2023-04-26T21:37:42.313Z,6.60
2023-04-26T21:39:45.160Z,6.60
2023-04-26T21:41:48.356Z,6.60
2023-04-26T21:43:57.112Z,6.60
2023-04-26T21:46:00.060Z,6.60
2023-04-26T21:48:03.020Z,6.60
2023-04-26T21:50:08.380Z,6.60
2023-04-26T21:52:11.551Z,6.60
2023-04-26T21:54:14.717Z,6.60
2023-04-26T21:56:20.523Z,6.60
2023-04-26T21:58:24.072Z,6.60
2023-04-26T22:00:30.126Z,6.60
2023-04-26T22:02:33.169Z,6.60
2023-04-26T22:04:36.160Z,6.60
2023-04-26T22:06:39.637Z,6.60
2023-04-26T22:08:42.990Z,6.60
2023-04-26T22:10:46.455Z,6.60
2023-04-26T22:12:50.113Z,6.60
2023-04-26T22:14:53.357Z,6.60
2023-04-26T22:17:03.773Z,6.60
2023-04-26T22:19:07.062Z,6.60
2023-04-26T22:21:10.045Z,6.60
2023-04-26T22:23:13.115Z,6.60
2023-04-26T22:25:16.245Z,6.60
2023-04-26T22:27:19.215Z,6.60
2023-04-26T22:29:22.235Z,6.60
2023-04-26T22:31:25.522Z,6.60
2023-04-26T22:33:29.857Z,6.50
2023-04-26T22:35:33.702Z,6.50
2023-04-26T22:37:36.672Z,6.50
2023-04-26T22:39:39.674Z,6.50
2023-04-26T22:41:42.589Z,6.60
2023-04-26T22:43:46.310Z,6.60
2023-04-26T22:45:49.215Z,6.70
2023-04-26T22:47:52.268Z,6.70
2023-04-26T22:49:59.562Z,6.70
2023-04-26T22:52:09.733Z,6.80
2023-04-26T22:54:20.408Z,6.80
2023-04-26T22:56:23.256Z,6.80
2023-04-26T22:58:26.239Z,6.80
2023-04-26T23:00:30.573Z,6.80
2023-04-26T23:02:34.131Z,6.70
2023-04-26T23:04:37.173Z,6.70
2023-04-26T23:06:41.815Z,6.70
2023-04-26T23:08:44.824Z,6.70
2023-04-26T23:10:47.696Z,6.60
2023-04-26T23:12:51.016Z,6.70
2023-04-26T23:14:56.848Z,6.60
2023-04-26T23:16:59.898Z,6.60
2023-04-26T23:19:08.057Z,6.60
2023-04-26T23:21:11.306Z,6.60
2023-04-26T23:23:15.946Z,6.60
2023-04-26T23:25:19.748Z,6.50
2023-04-26T23:27:24.328Z,6.50
2023-04-26T23:29:27.213Z,6.50
2023-04-26T23:31:30.120Z,6.50
2023-04-26T23:33:33.223Z,6.50
2023-04-26T23:35:41.514Z,6.50
2023-04-26T23:37:44.487Z,6.50
2023-04-26T23:39:48.994Z,6.50
2023-04-26T23:41:51.915Z,6.50
2023-04-26T23:43:54.850Z,6.50
2023-04-26T23:45:57.759Z,6.50
2023-04-26T23:48:01.681Z,6.40
2023-04-26T23:50:04.978Z,6.40
2023-04-26T23:52:08.052Z,6.40
2023-04-26T23:54:13.438Z,6.40
2023-04-26T23:56:17.859Z,6.40
2023-04-26T23:58:20.863Z,6.40
